createdAt,value
2022-11-29T00:04:11.508Z,20.73
2022-11-29T00:09:07.755Z,21.47
2022-11-29T00:14:04.104Z,22.07
2022-11-29T00:18:59.021Z,19.33
2022-11-29T00:23:53.714Z,20.60
2022-11-29T00:28:49.265Z,18.37
2022-11-29T00:33:42.675Z,19.67
2022-11-29T00:38:36.134Z,19.47
2022-11-29T00:43:30.937Z,18.70
2022-11-29T00:48:24.262Z,23.27
2022-11-29T00:53:17.774Z,20.03
2022-11-29T00:58:11.188Z,21.00
2022-11-29T01:03:06.013Z,22.07
2022-11-29T01:07:59.234Z,23.00
2022-11-29T01:12:52.737Z,20.30
2022-11-29T01:17:46.731Z,24.83
2022-11-29T01:22:41.696Z,22.87
2022-11-29T01:27:35.537Z,19.00
2022-11-29T01:32:28.819Z,20.33
2022-11-29T01:37:24.957Z,22.20
2022-11-29T01:42:19.675Z,21.53
2022-11-29T01:47:13.534Z,23.20
2022-11-29T01:52:10.731Z,20.77
2022-11-29T01:57:08.386Z,21.07
2022-11-29T02:02:07.381Z,20.50
2022-11-29T02:07:00.803Z,23.40
2022-11-29T02:12:15.728Z,26.27
2022-11-29T02:17:21.412Z,25.67
2022-11-29T02:22:20.273Z,23.10
2022-11-29T02:28:13.585Z,22.27
2022-11-29T02:33:42.880Z,21.07
2022-11-29T02:39:17.171Z,23.87
2022-11-29T02:44:46.271Z,24.83
2022-11-29T02:50:04.597Z,24.77
2022-11-29T02:55:05.967Z,26.30
2022-11-29T03:00:06.849Z,25.50
2022-11-29T03:05:11.498Z,23.87
2022-11-29T03:10:12.196Z,23.27
2022-11-29T03:15:18.309Z,22.77
2022-11-29T03:20:28.593Z,22.57
2022-11-29T03:25:27.686Z,24.77
2022-11-29T03:30:24.759Z,23.13
2022-11-29T03:35:26.056Z,20.43
2022-11-29T03:40:22.694Z,23.10
2022-11-29T03:45:24.130Z,24.60
2022-11-29T03:50:27.347Z,22.63
2022-11-29T03:55:34.066Z,26.93
2022-11-29T04:00:31.958Z,24.37
2022-11-29T04:05:54.581Z,26.07
2022-11-29T04:11:29.873Z,26.17
2022-11-29T04:16:52.718Z,25.20
2022-11-29T04:22:24.805Z,25.17
2022-11-29T04:27:34.566Z,25.67
2022-11-29T04:33:07.793Z,24.00
2022-11-29T04:38:27.581Z,23.13
2022-11-29T04:43:41.467Z,22.80
2022-11-29T04:49:00.414Z,24.30
2022-11-29T04:54:05.844Z,22.53
2022-11-29T04:59:05.472Z,27.57
2022-11-29T05:04:04.241Z,26.33
2022-11-29T05:09:12.895Z,25.47
2022-11-29T05:14:18.337Z,23.50
2022-11-29T05:19:51.509Z,22.47
2022-11-29T05:24:57.474Z,25.90
2022-11-29T05:29:56.649Z,22.80
2022-11-29T05:35:33.949Z,26.83
2022-11-29T05:40:43.088Z,22.80
2022-11-29T05:45:45.565Z,26.00
2022-11-29T05:50:43.423Z,27.57
2022-11-29T05:55:46.326Z,28.67
2022-11-29T06:00:49.139Z,30.00
2022-11-29T06:05:51.518Z,29.90
2022-11-29T06:11:07.948Z,31.40
2022-11-29T06:16:25.120Z,29.60
2022-11-29T06:21:32.781Z,30.57
2022-11-29T06:27:12.560Z,30.63
2022-11-29T06:32:23.023Z,29.77
2022-11-29T06:37:21.367Z,26.73
2022-11-29T06:42:16.044Z,28.73
2022-11-29T06:47:16.602Z,30.63
2022-11-29T06:57:25.202Z,28.33
2022-11-29T07:02:39.529Z,28.20
2022-11-29T07:07:35.590Z,29.80
2022-11-29T07:12:31.082Z,29.40
2022-11-29T07:17:30.397Z,24.73
2022-11-29T07:22:39.133Z,30.00
2022-11-29T07:28:06.442Z,29.90
2022-11-29T07:33:16.143Z,25.03
2022-11-29T07:38:22.237Z,28.77
2022-11-29T07:43:33.252Z,30.53
2022-11-29T07:53:24.560Z,28.63
2022-11-29T07:58:20.382Z,30.33
2022-11-29T08:03:14.147Z,35.23
2022-11-29T08:08:08.052Z,35.67
2022-11-29T08:13:02.134Z,33.90
2022-11-29T08:17:57.229Z,34.10
2022-11-29T08:23:00.200Z,28.63
2022-11-29T08:27:56.813Z,37.83
2022-11-29T08:32:54.105Z,32.77
2022-11-29T08:37:51.818Z,28.63
2022-11-29T08:42:47.705Z,31.43
2022-11-29T08:47:45.106Z,30.73
2022-11-29T08:53:00.943Z,32.10
2022-11-29T08:58:07.266Z,33.37
2022-11-29T09:03:29.980Z,32.80
2022-11-29T09:08:24.752Z,35.27
2022-11-29T09:13:26.094Z,30.10
2022-11-29T09:18:29.101Z,31.27
2022-11-29T09:23:22.691Z,30.37
2022-11-29T09:28:17.939Z,22.27
2022-11-29T09:33:15.514Z,21.87
2022-11-29T09:38:08.941Z,25.23
2022-11-29T09:43:07.931Z,24.93
2022-11-29T09:48:25.946Z,23.40
2022-11-29T09:53:43.689Z,22.10
2022-11-29T09:58:46.470Z,27.00
2022-11-29T10:03:45.074Z,27.47
2022-11-29T10:08:46.026Z,26.63
2022-11-29T10:13:50.247Z,23.67
2022-11-29T10:18:51.202Z,24.20
2022-11-29T10:23:48.916Z,21.20
2022-11-29T10:28:48.811Z,24.40
2022-11-29T10:33:43.330Z,21.42
2022-11-29T10:38:37.985Z,21.00
2022-11-29T10:43:31.605Z,25.27
2022-11-29T10:48:29.012Z,25.83
2022-11-29T10:53:25.841Z,20.73
2022-11-29T10:58:27.973Z,19.93
2022-11-29T11:03:36.179Z,19.60
2022-11-29T11:08:30.832Z,18.33
2022-11-29T11:13:27.565Z,23.37
2022-11-29T11:18:23.543Z,19.83
2022-11-29T11:23:31.841Z,20.57
2022-11-29T11:28:39.115Z,19.77
2022-11-29T11:33:39.131Z,18.67
2022-11-29T11:38:34.539Z,16.80
2022-11-29T11:43:29.875Z,23.43
2022-11-29T11:48:26.375Z,19.20
2022-11-29T11:53:24.390Z,20.03
2022-11-29T11:58:50.169Z,18.83
2022-11-29T12:03:56.236Z,19.47
2022-11-29T12:08:50.846Z,17.83
2022-11-29T12:13:53.942Z,20.27
2022-11-29T12:18:54.716Z,21.40
2022-11-29T12:28:44.472Z,17.53
2022-11-29T12:33:48.429Z,16.13
2022-11-29T12:39:04.055Z,16.20
2022-11-29T12:44:14.041Z,20.93
2022-11-29T12:49:18.712Z,22.50
2022-11-29T12:54:37.099Z,21.47
2022-11-29T12:59:46.763Z,18.73
2022-11-29T13:04:59.726Z,18.37
2022-11-29T13:10:18.372Z,23.03
2022-11-29T13:15:16.930Z,20.27
2022-11-29T13:20:25.085Z,20.60
2022-11-29T13:25:22.724Z,23.50
2022-11-29T13:30:17.008Z,19.43
2022-11-29T13:35:22.779Z,15.90
2022-11-29T13:40:27.151Z,25.93
2022-11-29T13:45:26.249Z,26.37
2022-11-29T13:50:43.945Z,19.70
2022-11-29T13:55:46.563Z,16.20
2022-11-29T14:00:52.384Z,19.40
2022-11-29T14:05:49.953Z,18.73
2022-11-29T14:10:49.248Z,14.60
2022-11-29T14:15:46.301Z,17.17
2022-11-29T14:20:56.641Z,19.10
2022-11-29T14:26:34.066Z,39.00
2022-11-29T14:31:55.702Z,19.57
2022-11-29T14:36:53.204Z,20.13
2022-11-29T14:41:56.876Z,22.90
2022-11-29T14:47:00.908Z,13.73
2022-11-29T14:52:10.694Z,18.00
2022-11-29T14:57:33.549Z,17.88
2022-11-29T15:02:33.804Z,21.33
2022-11-29T15:07:33.134Z,21.95
2022-11-29T15:12:31.477Z,20.73
2022-11-29T15:17:32.222Z,18.10
2022-11-29T15:22:39.560Z,19.73
2022-11-29T15:27:37.362Z,18.17
2022-11-29T15:32:34.263Z,18.52
2022-11-29T15:37:44.687Z,21.77
2022-11-29T15:42:51.274Z,19.83
2022-11-29T15:47:44.576Z,23.20
2022-11-29T15:52:41.233Z,23.20
2022-11-29T15:57:41.433Z,27.30
2022-11-29T16:02:37.245Z,24.27
2022-11-29T16:07:34.373Z,22.83
2022-11-29T16:12:29.299Z,31.60
2022-11-29T16:17:23.083Z,26.30
2022-11-29T16:22:22.686Z,24.60
2022-11-29T16:27:16.378Z,19.43
2022-11-29T16:32:27.294Z,24.10
2022-11-29T16:37:24.049Z,23.67
2022-11-29T16:42:25.151Z,27.38
2022-11-29T16:47:24.929Z,26.90
2022-11-29T16:52:25.413Z,26.53
2022-11-29T16:57:19.990Z,27.40
2022-11-29T17:02:14.093Z,27.58
2022-11-29T17:07:10.842Z,24.10
2022-11-29T17:12:04.496Z,30.33
2022-11-29T17:16:59.987Z,26.97
2022-11-29T17:21:55.955Z,29.80
2022-11-29T17:26:51.301Z,28.00
2022-11-29T17:31:45.183Z,28.02
2022-11-29T17:36:38.973Z,29.43
2022-11-29T17:41:36.542Z,28.33
2022-11-29T17:46:38.111Z,23.63
2022-11-29T17:56:45.349Z,28.02
2022-11-29T18:01:43.522Z,29.03
2022-11-29T18:06:41.930Z,26.93
2022-11-29T18:11:45.343Z,27.67
2022-11-29T18:16:43.090Z,26.07
2022-11-29T18:21:38.309Z,37.33
2022-11-29T18:26:33.929Z,27.43
2022-11-29T18:31:28.914Z,23.23
2022-11-29T18:36:26.091Z,24.43
2022-11-29T18:41:23.340Z,24.40
2022-11-29T18:46:20.100Z,23.53
2022-11-29T18:51:15.630Z,22.73
2022-11-29T18:56:15.755Z,22.55
2022-11-29T19:01:14.206Z,22.65
2022-11-29T19:06:13.092Z,23.70
2022-11-29T19:11:09.364Z,24.80
2022-11-29T19:16:05.448Z,28.17
2022-11-29T19:21:06.018Z,21.10
2022-11-29T19:26:21.708Z,21.42
2022-11-29T19:31:19.500Z,18.50
2022-11-29T19:36:14.922Z,19.20
2022-11-29T19:41:17.319Z,19.05
2022-11-29T19:46:32.415Z,24.87
2022-11-29T19:51:30.629Z,23.37
2022-11-29T19:56:39.849Z,21.07
2022-11-29T20:01:50.780Z,20.90
2022-11-29T20:06:44.865Z,18.50
2022-11-29T20:11:40.172Z,16.90
2022-11-29T20:16:34.701Z,19.53
2022-11-29T20:21:31.538Z,22.07
2022-11-29T20:26:36.151Z,21.67
2022-11-29T20:31:30.554Z,23.00
2022-11-29T20:36:46.182Z,19.17
2022-11-29T20:41:53.549Z,24.13
2022-11-29T20:46:51.978Z,19.43
2022-11-29T20:52:10.689Z,19.23
2022-11-29T20:57:12.436Z,18.50
2022-11-29T21:02:07.795Z,16.80
2022-11-29T21:07:07.795Z,16.83
2022-11-29T21:12:01.883Z,17.02
2022-11-29T21:16:56.011Z,18.37
2022-11-29T21:22:03.387Z,22.80
2022-11-29T21:27:12.413Z,18.97
2022-11-29T21:32:24.095Z,17.20
2022-11-29T21:37:38.889Z,19.47
2022-11-29T21:42:54.238Z,17.17
2022-11-29T21:47:49.658Z,18.70
2022-11-29T21:52:48.880Z,20.93
2022-11-29T21:57:50.658Z,19.77
2022-11-29T22:02:46.809Z,21.53
2022-11-29T22:07:40.688Z,17.63
2022-11-29T22:12:35.241Z,21.00
2022-11-29T22:17:30.169Z,17.53
2022-11-29T22:22:28.247Z,15.40
2022-11-29T22:27:22.085Z,15.10
2022-11-29T22:32:19.912Z,16.50
2022-11-29T22:37:14.760Z,16.40
2022-11-29T22:42:08.036Z,17.00
2022-11-29T22:47:01.916Z,17.43
2022-11-29T22:51:58.801Z,18.17
2022-11-29T22:57:00.627Z,18.20
2022-11-29T23:01:56.931Z,17.53
2022-11-29T23:06:51.948Z,18.90
2022-11-29T23:11:53.475Z,18.40
2022-11-29T23:16:50.317Z,18.43
2022-11-29T23:21:45.978Z,20.90
2022-11-29T23:26:42.739Z,21.50
2022-11-29T23:31:44.854Z,19.50
2022-11-29T23:36:44.783Z,23.43
2022-11-29T23:42:35.718Z,20.90
2022-11-29T23:47:29.253Z,21.30
2022-11-29T23:52:26.978Z,20.10
2022-11-29T23:57:20.478Z,18.80
